Cottrellville, Michigan
Current Conditions -  °F | °C
As of 10:37 AM on Friday 28 Nov 2014 (Local Time) from KPHN Reporting Station
Scattered Clouds Scattered Clouds  
Wind Chill: 14°   Ceiling: Unl
Heat Index: 21°   Visibility: 10mi
Dew Point:   Wind: 6mph
Humidity: 58%   Direction: 230°SW
Pressure: 30.32"   Gusts: NA
Location:  42.6968°N, 82.5536°W
Report Text: KPHN 281537Z AUTO 23005KT 10SM SCT110 M06/M13 A3032 RMK AO2
Loading
Personal Weather Stations






























Interactive Weather Map New forecast layout! Learn more

10-Day Weather Forecast

Advertisements
Track Severe Weather on mobile